createdAt,value
2019-05-19T00:00:27.384Z,20.50
2019-05-19T00:05:34.581Z,20.60
2019-05-19T00:10:41.581Z,20.97
2019-05-19T00:15:48.484Z,21.10
2019-05-19T00:20:55.500Z,25.88
2019-05-19T00:26:02.473Z,22.65
2019-05-19T00:31:09.543Z,21.85
2019-05-19T00:36:19.529Z,20.82
2019-05-19T00:41:25.434Z,20.72
2019-05-19T00:46:32.468Z,21.85
2019-05-19T00:51:39.907Z,22.13
2019-05-19T00:56:48.455Z,23.22
2019-05-19T01:01:55.472Z,22.85
2019-05-19T01:07:02.671Z,21.07
2019-05-19T01:12:13.289Z,21.20
2019-05-19T01:17:20.456Z,20.80
2019-05-19T01:22:27.609Z,22.00
2019-05-19T01:27:34.449Z,21.42
2019-05-19T01:32:41.505Z,20.90
2019-05-19T01:37:48.444Z,21.52
2019-05-19T01:42:55.478Z,20.02
2019-05-19T01:48:03.463Z,21.82
2019-05-19T01:53:10.476Z,21.40
2019-05-19T01:58:17.459Z,22.25
2019-05-19T02:03:24.497Z,20.90
2019-05-19T02:08:31.602Z,20.45
2019-05-19T02:13:38.602Z,19.70
2019-05-19T02:18:45.466Z,18.30
2019-05-19T02:23:52.516Z,17.48
2019-05-19T02:28:59.474Z,18.07
2019-05-19T02:34:06.587Z,17.73
2019-05-19T02:39:13.532Z,16.85
2019-05-19T02:44:22.089Z,16.95
2019-05-19T02:49:32.040Z,17.42
2019-05-19T02:54:40.072Z,15.93
2019-05-19T02:59:47.581Z,16.60
2019-05-19T03:04:54.500Z,17.07
2019-05-19T03:10:01.444Z,17.57
2019-05-19T03:15:09.093Z,17.87
2019-05-19T03:20:16.618Z,16.77
2019-05-19T03:25:26.586Z,17.00
2019-05-19T03:30:51.504Z,16.60
2019-05-19T03:35:58.460Z,16.75
2019-05-19T03:41:05.587Z,15.58
2019-05-19T03:46:12.434Z,15.93
2019-05-19T03:51:30.231Z,14.70
2019-05-19T03:56:28.411Z,14.25
2019-05-19T04:01:35.577Z,15.18
2019-05-19T04:06:42.435Z,14.53
2019-05-19T04:11:49.486Z,14.23
2019-05-19T04:16:56.430Z,13.30
2019-05-19T04:22:03.546Z,13.05
2019-05-19T04:27:12.574Z,12.75
2019-05-19T04:32:19.589Z,13.03
2019-05-19T04:37:26.439Z,12.35
2019-05-19T04:42:33.470Z,12.37
2019-05-19T04:47:40.536Z,12.05
2019-05-19T04:52:48.448Z,13.05
2019-05-19T04:57:55.470Z,13.22
2019-05-19T05:03:02.516Z,12.25
2019-05-19T05:08:25.201Z,12.78
2019-05-19T05:13:18.437Z,12.95
2019-05-19T05:18:26.438Z,12.25
2019-05-19T05:23:33.455Z,12.60
2019-05-19T05:28:40.456Z,13.03
2019-05-19T05:33:47.556Z,12.68
2019-05-19T05:38:54.470Z,12.33
2019-05-19T05:44:02.290Z,12.13
2019-05-19T05:59:22.468Z,12.43
2019-05-19T06:04:29.554Z,11.70
2019-05-19T06:09:36.561Z,12.30
2019-05-19T06:14:43.552Z,11.95
2019-05-19T06:19:50.599Z,11.83
2019-05-19T06:24:59.238Z,11.97
2019-05-19T06:30:10.723Z,11.80
2019-05-19T06:35:18.097Z,11.55
2019-05-19T06:40:25.455Z,11.83
2019-05-19T06:45:38.031Z,11.63
2019-05-19T06:55:51.540Z,11.15
2019-05-19T07:00:59.244Z,10.53
2019-05-19T07:06:12.478Z,10.40
2019-05-19T07:11:19.596Z,10.38
2019-05-19T07:16:26.461Z,9.88
2019-05-19T07:21:33.564Z,9.70
2019-05-19T07:26:41.584Z,9.43
2019-05-19T07:31:48.748Z,9.13
2019-05-19T07:36:55.618Z,8.33
2019-05-19T07:42:03.599Z,8.75
2019-05-19T07:47:10.526Z,8.05
2019-05-19T07:52:17.741Z,7.50
2019-05-19T07:57:24.589Z,7.22
2019-05-19T08:02:31.653Z,6.95
2019-05-19T08:07:38.538Z,7.03
2019-05-19T08:12:46.854Z,6.58
2019-05-19T08:17:54.124Z,6.40
2019-05-19T08:23:01.447Z,6.25
2019-05-19T08:28:09.236Z,6.60
2019-05-19T08:33:16.442Z,7.12
2019-05-19T08:38:23.614Z,6.83
2019-05-19T08:48:37.744Z,6.60
2019-05-19T08:53:46.449Z,6.40
2019-05-19T08:58:53.474Z,6.10
2019-05-19T09:04:00.557Z,5.93
2019-05-19T09:09:08.915Z,6.00
2019-05-19T09:14:15.727Z,5.25
2019-05-19T09:19:22.592Z,5.30
2019-05-19T09:24:31.104Z,4.70
2019-05-19T09:29:38.463Z,5.90
2019-05-19T09:34:46.504Z,8.80
2019-05-19T09:39:53.437Z,5.90
2019-05-19T09:45:02.127Z,4.50
2019-05-19T10:00:22.259Z,4.50
2019-05-19T10:11:31.443Z,5.90
2019-05-19T10:16:40.438Z,4.15
2019-05-19T10:21:47.466Z,4.00
2019-05-19T10:26:56.924Z,4.30
2019-05-19T10:32:04.053Z,3.92
2019-05-19T10:37:11.256Z,12.25
2019-05-19T10:47:26.446Z,10.70
2019-05-19T10:52:33.435Z,9.00
2019-05-19T10:57:41.449Z,6.20
2019-05-19T11:02:48.924Z,7.87
2019-05-19T11:07:55.739Z,7.35
2019-05-19T11:13:03.920Z,4.67
2019-05-19T11:18:10.664Z,4.90
2019-05-19T11:23:17.568Z,4.67
2019-05-19T11:28:24.438Z,5.30
2019-05-19T11:33:31.460Z,4.80
2019-05-19T11:38:38.585Z,5.40
2019-05-19T11:43:45.510Z,5.03
2019-05-19T11:48:52.925Z,4.70
2019-05-19T11:53:59.640Z,5.60
2019-05-19T11:59:06.726Z,5.40
2019-05-19T12:04:13.583Z,5.62
2019-05-19T12:09:20.424Z,5.50
2019-05-19T12:14:28.755Z,5.35
2019-05-19T12:19:35.534Z,5.40
2019-05-19T12:24:44.924Z,6.10
2019-05-19T12:29:51.583Z,6.00
2019-05-19T12:34:58.462Z,11.73
2019-05-19T12:40:06.389Z,10.13
2019-05-19T12:45:15.042Z,6.62
2019-05-19T13:15:52.400Z,5.70
2019-05-19T13:20:59.449Z,5.40
2019-05-19T13:26:06.575Z,5.50
2019-05-19T13:31:13.497Z,5.72
2019-05-19T13:36:20.524Z,5.97
2019-05-19T13:41:27.597Z,5.60
2019-05-19T13:46:34.522Z,5.03
2019-05-19T13:51:41.578Z,5.20
2019-05-19T13:56:48.550Z,5.42
2019-05-19T14:01:56.549Z,5.45
2019-05-19T14:07:04.779Z,5.05
2019-05-19T14:12:11.568Z,5.90
2019-05-19T14:17:18.616Z,9.33
2019-05-19T14:22:25.524Z,11.30
2019-05-19T14:27:32.910Z,10.07
2019-05-19T14:32:40.246Z,13.15
2019-05-19T14:42:58.117Z,12.98
2019-05-19T14:48:05.531Z,12.50
2019-05-19T14:53:12.508Z,12.90
2019-05-19T14:58:19.574Z,14.43
2019-05-19T15:03:26.522Z,11.80
2019-05-19T15:08:33.421Z,13.60
2019-05-19T15:13:40.573Z,12.03
2019-05-19T15:18:47.615Z,11.97
2019-05-19T15:23:54.565Z,13.60
2019-05-19T15:29:01.624Z,13.90
2019-05-19T15:34:08.566Z,14.28
2019-05-19T15:39:15.562Z,14.80
2019-05-19T15:44:22.586Z,13.40
2019-05-19T15:49:29.862Z,14.68
2019-05-19T15:54:36.601Z,13.15
2019-05-19T15:59:44.599Z,14.33
2019-05-19T16:04:51.714Z,12.70
2019-05-19T16:09:58.601Z,11.63
2019-05-19T16:19:36.579Z,10.53
2019-05-19T16:24:43.590Z,10.30
2019-05-19T16:29:50.458Z,8.27
2019-05-19T16:34:57.524Z,8.30
2019-05-19T16:40:04.588Z,8.80
2019-05-19T16:45:13.250Z,8.53
2019-05-19T16:55:28.309Z,8.78
2019-05-19T17:00:35.524Z,14.60
2019-05-19T17:05:42.771Z,10.48
2019-05-19T17:10:49.585Z,10.67
2019-05-19T17:15:56.595Z,9.23
2019-05-19T17:21:03.569Z,9.80
2019-05-19T17:26:12.460Z,9.50
2019-05-19T17:31:19.462Z,9.33
2019-05-19T17:36:27.565Z,10.30
2019-05-19T17:41:34.589Z,9.50
2019-05-19T17:46:41.526Z,9.50
2019-05-19T17:51:51.590Z,10.05
2019-05-19T17:57:00.501Z,10.35
2019-05-19T18:02:07.453Z,9.93
2019-05-19T18:07:14.500Z,10.17
2019-05-19T18:12:21.595Z,10.20
2019-05-19T18:17:28.453Z,11.15
2019-05-19T18:22:35.502Z,9.73
2019-05-19T18:27:42.867Z,9.50
2019-05-19T18:32:49.694Z,14.30
2019-05-19T18:37:56.601Z,10.28
2019-05-19T18:43:03.609Z,10.40
2019-05-19T18:48:10.592Z,9.63
2019-05-19T18:53:17.469Z,9.28
2019-05-19T18:58:24.587Z,11.93
2019-05-19T19:03:32.063Z,11.07
2019-05-19T19:08:39.453Z,9.35
2019-05-19T19:18:52.603Z,15.10
2019-05-19T19:23:59.585Z,14.85
2019-05-19T19:29:06.804Z,13.45
2019-05-19T19:34:14.025Z,11.48
2019-05-19T19:39:21.263Z,11.40
2019-05-19T19:49:34.429Z,10.05
2019-05-19T20:04:53.579Z,10.18
2019-05-19T20:15:07.656Z,15.70
2019-05-19T20:20:15.608Z,15.15
2019-05-19T20:25:22.583Z,15.30
2019-05-19T20:30:35.486Z,15.10
2019-05-19T20:40:46.904Z,14.78
2019-05-19T20:45:54.922Z,15.93
2019-05-19T20:51:02.910Z,15.10
2019-05-19T20:56:09.859Z,16.42
2019-05-19T21:01:16.725Z,15.85
2019-05-19T21:06:23.597Z,16.00
2019-05-19T21:11:30.450Z,15.70
2019-05-19T21:16:38.448Z,15.40
2019-05-19T21:21:47.235Z,15.40
2019-05-19T21:26:54.674Z,15.90
2019-05-19T21:32:01.588Z,16.27
2019-05-19T21:37:08.597Z,17.23
2019-05-19T21:42:15.602Z,17.50
2019-05-19T21:47:22.633Z,16.97
2019-05-19T21:52:29.584Z,17.67
2019-05-19T21:57:37.032Z,17.50
2019-05-19T22:02:44.271Z,17.25
2019-05-19T22:08:08.319Z,16.15
2019-05-19T22:13:15.429Z,16.93
2019-05-19T22:18:22.652Z,15.85
2019-05-19T22:23:29.458Z,17.60
2019-05-19T22:28:36.451Z,17.70
2019-05-19T22:33:44.446Z,18.25
2019-05-19T22:38:53.237Z,17.60
2019-05-19T22:44:00.443Z,18.30
2019-05-19T22:49:07.592Z,19.12
2019-05-19T22:54:14.460Z,19.65
2019-05-19T22:59:22.573Z,20.50
2019-05-19T23:04:29.580Z,22.32
2019-05-19T23:14:42.401Z,21.62
2019-05-19T23:19:49.452Z,22.40
2019-05-19T23:30:03.556Z,23.15
2019-05-19T23:35:10.786Z,21.65
2019-05-19T23:40:18.030Z,21.60
2019-05-19T23:45:25.235Z,23.35
2019-05-19T23:50:32.555Z,22.30
2019-05-19T23:55:39.521Z,23.07
